sensor_id;sensor_type;location;lat;lon;timestamp;pressure;altitude;pressure_sealevel;temperature;humidity
46464;BME280;32161;48.148;-1.554;2023-08-30T00:02:15;100526.22;;;17.83;90.06
46464;BME280;32161;48.148;-1.554;2023-08-30T00:04:42;100524.59;;;17.82;90.33
46464;BME280;32161;48.148;-1.554;2023-08-30T00:07:10;100524.88;;;17.80;90.56
46464;BME280;32161;48.148;-1.554;2023-08-30T00:09:37;100510.59;;;17.78;90.87
46464;BME280;32161;48.148;-1.554;2023-08-30T00:12:07;100524.34;;;17.78;91.38
46464;BME280;32161;48.148;-1.554;2023-08-30T00:14:34;100517.19;;;17.77;91.44
46464;BME280;32161;48.148;-1.554;2023-08-30T00:17:02;100513.84;;;17.86;91.21
46464;BME280;32161;48.148;-1.554;2023-08-30T00:19:29;100505.09;;;17.78;91.89
46464;BME280;32161;48.148;-1.554;2023-08-30T00:21:57;100503.75;;;17.76;92.42
46464;BME280;32161;48.148;-1.554;2023-08-30T00:24:25;100501.22;;;17.74;92.68
46464;BME280;32161;48.148;-1.554;2023-08-30T00:26:52;100497.66;;;17.74;93.02
46464;BME280;32161;48.148;-1.554;2023-08-30T00:29:21;100494.66;;;17.70;93.47
46464;BME280;32161;48.148;-1.554;2023-08-30T00:31:48;100489.72;;;17.67;94.07
46464;BME280;32161;48.148;-1.554;2023-08-30T00:34:16;100485.34;;;17.66;94.57
46464;BME280;32161;48.148;-1.554;2023-08-30T00:36:44;100482.03;;;17.69;94.90
46464;BME280;32161;48.148;-1.554;2023-08-30T00:39:11;100469.41;;;17.68;95.08
46464;BME280;32161;48.148;-1.554;2023-08-30T00:41:39;100477.66;;;17.68;95.44
46464;BME280;32161;48.148;-1.554;2023-08-30T00:44:07;100472.66;;;17.70;95.47
46464;BME280;32161;48.148;-1.554;2023-08-30T00:46:36;100472.94;;;17.74;95.50
46464;BME280;32161;48.148;-1.554;2023-08-30T00:49:05;100467.72;;;17.77;95.54
46464;BME280;32161;48.148;-1.554;2023-08-30T00:51:33;100469.06;;;17.80;95.19
46464;BME280;32161;48.148;-1.554;2023-08-30T00:54:01;100467.41;;;17.79;95.45
46464;BME280;32161;48.148;-1.554;2023-08-30T00:56:29;100467.16;;;17.75;96.38
46464;BME280;32161;48.148;-1.554;2023-08-30T00:58:58;100463.84;;;17.78;97.33
46464;BME280;32161;48.148;-1.554;2023-08-30T01:01:26;100470.75;;;17.76;98.36
46464;BME280;32161;48.148;-1.554;2023-08-30T01:03:55;100469.09;;;17.75;99.36
46464;BME280;32161;48.148;-1.554;2023-08-30T01:06:23;100461.41;;;17.77;99.35
46464;BME280;32161;48.148;-1.554;2023-08-30T01:08:50;100461.38;;;17.72;100.00
46464;BME280;32161;48.148;-1.554;2023-08-30T01:11:24;100459.19;;;17.74;100.00
46464;BME280;32161;48.148;-1.554;2023-08-30T01:13:58;100458.63;;;17.72;100.00
46464;BME280;32161;48.148;-1.554;2023-08-30T01:16:28;100461.41;;;17.77;100.00
46464;BME280;32161;48.148;-1.554;2023-08-30T01:18:57;100457.81;;;17.71;100.00
46464;BME280;32161;48.148;-1.554;2023-08-30T01:21:36;100457.00;;;17.71;100.00
46464;BME280;32161;48.148;-1.554;2023-08-30T01:24:08;100449.03;;;17.69;100.00
46464;BME280;32161;48.148;-1.554;2023-08-30T01:26:42;100457.25;;;17.74;100.00
46464;BME280;32161;48.148;-1.554;2023-08-30T01:29:13;100460.03;;;17.69;100.00
46464;BME280;32161;48.148;-1.554;2023-08-30T01:31:45;100454.81;;;17.68;100.00
46464;BME280;32161;48.148;-1.554;2023-08-30T01:34:15;100453.47;;;17.65;100.00
46464;BME280;32161;48.148;-1.554;2023-08-30T01:36:44;100450.72;;;17.65;100.00
46464;BME280;32161;48.148;-1.554;2023-08-30T01:39:13;100453.47;;;17.65;100.00
46464;BME280;32161;48.148;-1.554;2023-08-30T01:41:42;100449.09;;;17.64;100.00
46464;BME280;32161;48.148;-1.554;2023-08-30T01:44:12;100451.84;;;17.64;100.00
46464;BME280;32161;48.148;-1.554;2023-08-30T01:46:42;100466.13;;;17.61;100.00
46464;BME280;32161;48.148;-1.554;2023-08-30T01:49:10;100470.00;;;17.55;100.00
46464;BME280;32161;48.148;-1.554;2023-08-30T01:51:40;100468.50;;;17.33;100.00
46464;BME280;32161;48.148;-1.554;2023-08-30T01:54:10;100463.31;;;17.17;100.00
46464;BME280;32161;48.148;-1.554;2023-08-30T01:56:40;100457.81;;;17.22;100.00
46464;BME280;32161;48.148;-1.554;2023-08-30T01:59:08;100447.91;;;17.26;100.00
46464;BME280;32161;48.148;-1.554;2023-08-30T02:01:37;100456.72;;;17.23;100.00
46464;BME280;32161;48.148;-1.554;2023-08-30T02:04:04;100457.53;;;17.23;100.00
46464;BME280;32161;48.148;-1.554;2023-08-30T02:06:39;100459.16;;;17.24;100.00
46464;BME280;32161;48.148;-1.554;2023-08-30T02:09:14;100454.78;;;17.23;100.00
46464;BME280;32161;48.148;-1.554;2023-08-30T02:11:46;100458.06;;;17.25;100.00
46464;BME280;32161;48.148;-1.554;2023-08-30T02:14:16;100448.44;;;17.28;100.00
46464;BME280;32161;48.148;-1.554;2023-08-30T02:16:47;100450.91;;;17.29;100.00
46464;BME280;32161;48.148;-1.554;2023-08-30T02:19:15;100450.66;;;17.26;100.00
46464;BME280;32161;48.148;-1.554;2023-08-30T02:21:47;100447.63;;;17.27;100.00
46464;BME280;32161;48.148;-1.554;2023-08-30T02:24:14;100450.34;;;17.32;100.00
46464;BME280;32161;48.148;-1.554;2023-08-30T02:26:42;100452.28;;;17.32;100.00
46464;BME280;32161;48.148;-1.554;2023-08-30T02:29:09;100441.00;;;17.33;100.00
46464;BME280;32161;48.148;-1.554;2023-08-30T02:31:39;100442.66;;;17.35;100.00
46464;BME280;32161;48.148;-1.554;2023-08-30T02:34:08;100449.53;;;17.32;100.00
46464;BME280;32161;48.148;-1.554;2023-08-30T02:36:36;100443.50;;;17.30;100.00
46464;BME280;32161;48.148;-1.554;2023-08-30T02:39:04;100447.88;;;17.31;100.00
46464;BME280;32161;48.148;-1.554;2023-08-30T02:41:31;100459.13;;;17.29;100.00
46464;BME280;32161;48.148;-1.554;2023-08-30T02:44:00;100444.88;;;17.27;100.00
46464;BME280;32161;48.148;-1.554;2023-08-30T02:46:28;100444.06;;;17.27;100.00
46464;BME280;32161;48.148;-1.554;2023-08-30T02:48:55;100447.63;;;17.27;100.00
46464;BME280;32161;48.148;-1.554;2023-08-30T02:51:24;100439.09;;;17.29;100.00
46464;BME280;32161;48.148;-1.554;2023-08-30T02:53:52;100432.50;;;17.30;100.00
46464;BME280;32161;48.148;-1.554;2023-08-30T02:56:19;100434.41;;;17.29;100.00
46464;BME280;32161;48.148;-1.554;2023-08-30T02:58:47;100440.75;;;17.30;100.00
46464;BME280;32161;48.148;-1.554;2023-08-30T03:01:14;100437.47;;;17.28;100.00
46464;BME280;32161;48.148;-1.554;2023-08-30T03:03:42;100443.25;;;17.26;100.00
46464;BME280;32161;48.148;-1.554;2023-08-30T03:06:10;100450.13;;;17.24;100.00
46464;BME280;32161;48.148;-1.554;2023-08-30T03:08:39;100448.75;;;17.21;100.00
46464;BME280;32161;48.148;-1.554;2023-08-30T03:11:11;100447.09;;;17.20;100.00
46464;BME280;32161;48.148;-1.554;2023-08-30T03:13:39;100446.28;;;17.20;100.00
46464;BME280;32161;48.148;-1.554;2023-08-30T03:16:14;100453.72;;;17.19;100.00
46464;BME280;32161;48.148;-1.554;2023-08-30T03:18:43;100452.06;;;17.18;100.00
46464;BME280;32161;48.148;-1.554;2023-08-30T03:21:11;100446.59;;;17.18;100.00
46464;BME280;32161;48.148;-1.554;2023-08-30T03:23:40;100442.16;;;17.17;100.00
46464;BME280;32161;48.148;-1.554;2023-08-30T03:26:08;100430.66;;;17.15;100.00
46464;BME280;32161;48.148;-1.554;2023-08-30T03:28:37;100423.78;;;17.13;100.00
46464;BME280;32161;48.148;-1.554;2023-08-30T03:31:13;100416.41;;;17.08;100.00
46464;BME280;32161;48.148;-1.554;2023-08-30T03:33:40;100414.22;;;17.05;100.00
46464;BME280;32161;48.148;-1.554;2023-08-30T03:36:10;100414.78;;;17.07;100.00
46464;BME280;32161;48.148;-1.554;2023-08-30T03:38:40;100429.84;;;17.09;100.00
46464;BME280;32161;48.148;-1.554;2023-08-30T03:41:08;100430.09;;;17.13;100.00
46464;BME280;32161;48.148;-1.554;2023-08-30T03:43:35;100436.16;;;17.15;100.00
46464;BME280;32161;48.148;-1.554;2023-08-30T03:46:03;100442.16;;;17.17;100.00
46464;BME280;32161;48.148;-1.554;2023-08-30T03:48:31;100432.84;;;17.18;100.00
46464;BME280;32161;48.148;-1.554;2023-08-30T03:50:59;100435.31;;;17.20;100.00
46464;BME280;32161;48.148;-1.554;2023-08-30T03:53:27;100430.63;;;17.20;100.00
46464;BME280;32161;48.148;-1.554;2023-08-30T03:55:57;100424.31;;;17.20;100.00
46464;BME280;32161;48.148;-1.554;2023-08-30T03:58:25;100424.31;;;17.20;100.00
46464;BME280;32161;48.148;-1.554;2023-08-30T04:00:53;100434.19;;;17.21;100.00
46464;BME280;32161;48.148;-1.554;2023-08-30T04:03:20;100427.59;;;17.22;100.00
46464;BME280;32161;48.148;-1.554;2023-08-30T04:05:53;100427.31;;;17.23;100.00
46464;BME280;32161;48.148;-1.554;2023-08-30T04:08:21;100430.06;;;17.23;100.00
46464;BME280;32161;48.148;-1.554;2023-08-30T04:10:52;100426.22;;;17.24;100.00
46464;BME280;32161;48.148;-1.554;2023-08-30T04:13:21;100428.13;;;17.24;100.00
46464;BME280;32161;48.148;-1.554;2023-08-30T04:15:49;100431.44;;;17.26;100.00
46464;BME280;32161;48.148;-1.554;2023-08-30T04:18:17;100431.69;;;17.24;100.00
46464;BME280;32161;48.148;-1.554;2023-08-30T04:20:45;100439.94;;;17.24;100.00
46464;BME280;32161;48.148;-1.554;2023-08-30T04:23:13;100436.38;;;17.24;100.00
46464;BME280;32161;48.148;-1.554;2023-08-30T04:25:41;100433.06;;;17.22;100.00
46464;BME280;32161;48.148;-1.554;2023-08-30T04:28:09;100425.13;;;17.20;100.00
46464;BME280;32161;48.148;-1.554;2023-08-30T04:30:38;100421.88;;;17.18;100.00
46464;BME280;32161;48.148;-1.554;2023-08-30T04:33:06;100421.31;;;17.16;100.00
46464;BME280;32161;48.148;-1.554;2023-08-30T04:35:33;100427.91;;;17.15;100.00
46464;BME280;32161;48.148;-1.554;2023-08-30T04:38:02;100431.75;;;17.14;100.00
46464;BME280;32161;48.148;-1.554;2023-08-30T04:40:29;100426.53;;;17.13;100.00
46464;BME280;32161;48.148;-1.554;2023-08-30T04:42:58;100431.75;;;17.14;100.00
46464;BME280;32161;48.148;-1.554;2023-08-30T04:45:25;100421.88;;;17.13;100.00
46464;BME280;32161;48.148;-1.554;2023-08-30T04:47:55;100433.41;;;17.15;100.00
46464;BME280;32161;48.148;-1.554;2023-08-30T04:50:22;100427.09;;;17.15;100.00
46464;BME280;32161;48.148;-1.554;2023-08-30T04:52:50;100431.22;;;17.12;100.00
46464;BME280;32161;48.148;-1.554;2023-08-30T04:55:18;100430.66;;;17.10;100.00
46464;BME280;32161;48.148;-1.554;2023-08-30T04:57:45;100432.88;;;17.08;100.00
46464;BME280;32161;48.148;-1.554;2023-08-30T05:00:14;100434.53;;;17.09;100.00
46464;BME280;32161;48.148;-1.554;2023-08-30T05:02:42;100438.38;;;17.08;100.00
46464;BME280;32161;48.148;-1.554;2023-08-30T05:05:14;100432.06;;;17.07;100.00
46464;BME280;32161;48.148;-1.554;2023-08-30T05:07:42;100436.75;;;17.07;100.00
46464;BME280;32161;48.148;-1.554;2023-08-30T05:10:10;100439.50;;;17.07;100.00
46464;BME280;32161;48.148;-1.554;2023-08-30T05:12:38;100439.50;;;17.07;100.00
46464;BME280;32161;48.148;-1.554;2023-08-30T05:15:07;100434.00;;;17.07;100.00
46464;BME280;32161;48.148;-1.554;2023-08-30T05:17:35;100438.63;;;17.06;100.00
46464;BME280;32161;48.148;-1.554;2023-08-30T05:20:03;100428.75;;;17.05;100.00
46464;BME280;32161;48.148;-1.554;2023-08-30T05:22:33;100432.34;;;17.01;100.00
46464;BME280;32161;48.148;-1.554;2023-08-30T05:25:00;100427.97;;;17.00;100.00
46464;BME280;32161;48.148;-1.554;2023-08-30T05:27:28;100433.22;;;16.96;100.00
46464;BME280;32161;48.148;-1.554;2023-08-30T05:29:56;100430.72;;;16.95;100.00
46464;BME280;32161;48.148;-1.554;2023-08-30T05:32:23;100434.56;;;16.94;100.00
46464;BME280;32161;48.148;-1.554;2023-08-30T05:34:51;100423.88;;;16.92;100.00
46464;BME280;32161;48.148;-1.554;2023-08-30T05:37:19;100429.09;;;16.94;100.00
46464;BME280;32161;48.148;-1.554;2023-08-30T05:39:48;100432.66;;;16.94;100.00
46464;BME280;32161;48.148;-1.554;2023-08-30T05:42:16;100430.22;;;16.88;100.00
46464;BME280;32161;48.148;-1.554;2023-08-30T05:44:43;100436.53;;;16.88;100.00
46464;BME280;32161;48.148;-1.554;2023-08-30T05:47:11;100433.25;;;16.91;100.00
46464;BME280;32161;48.148;-1.554;2023-08-30T05:49:41;100442.28;;;16.92;100.00
46464;BME280;32161;48.148;-1.554;2023-08-30T05:52:08;100444.75;;;16.93;100.00
46464;BME280;32161;48.148;-1.554;2023-08-30T05:54:36;100448.59;;;16.92;100.00
46464;BME280;32161;48.148;-1.554;2023-08-30T05:57:05;100445.03;;;16.92;100.00
46464;BME280;32161;48.148;-1.554;2023-08-30T05:59:33;100441.72;;;16.95;100.00
46464;BME280;32161;48.148;-1.554;2023-08-30T06:02:01;100433.75;;;16.93;100.00
46464;BME280;32161;48.148;-1.554;2023-08-30T06:04:28;100448.31;;;16.94;100.00
46464;BME280;32161;48.148;-1.554;2023-08-30T06:06:56;100447.19;;;16.95;100.00
46464;BME280;32161;48.148;-1.554;2023-08-30T06:09:23;100451.59;;;16.96;100.00
46464;BME280;32161;48.148;-1.554;2023-08-30T06:11:51;100456.00;;;16.97;100.00
46464;BME280;32161;48.148;-1.554;2023-08-30T06:14:21;100451.59;;;16.96;100.00
46464;BME280;32161;48.148;-1.554;2023-08-30T06:16:49;100461.78;;;16.95;100.00
46464;BME280;32161;48.148;-1.554;2023-08-30T06:19:16;100458.75;;;16.97;100.00
46464;BME280;32161;48.148;-1.554;2023-08-30T06:21:44;100459.03;;;16.95;100.00
46464;BME280;32161;48.148;-1.554;2023-08-30T06:24:12;100463.66;;;16.95;100.00
46464;BME280;32161;48.148;-1.554;2023-08-30T06:26:39;100462.84;;;16.94;100.00
46464;BME280;32161;48.148;-1.554;2023-08-30T06:29:07;100459.28;;;16.94;100.00
46464;BME280;32161;48.148;-1.554;2023-08-30T06:31:36;100459.28;;;16.94;100.00
46464;BME280;32161;48.148;-1.554;2023-08-30T06:34:05;100466.16;;;16.96;100.00
46464;BME280;32161;48.148;-1.554;2023-08-30T06:36:33;100464.78;;;16.99;100.00
46464;BME280;32161;48.148;-1.554;2023-08-30T06:39:00;100471.91;;;17.00;100.00
46464;BME280;32161;48.148;-1.554;2023-08-30T06:41:28;100468.06;;;17.01;100.00
46464;BME280;32161;48.148;-1.554;2023-08-30T06:43:56;100472.44;;;17.02;100.00
46464;BME280;32161;48.148;-1.554;2023-08-30T06:46:24;100479.59;;;17.03;100.00
46464;BME280;32161;48.148;-1.554;2023-08-30T06:48:53;100480.41;;;17.03;100.00
46464;BME280;32161;48.148;-1.554;2023-08-30T06:51:20;100477.38;;;17.05;100.00
46464;BME280;32161;48.148;-1.554;2023-08-30T06:53:48;100465.28;;;17.06;100.00
46464;BME280;32161;48.148;-1.554;2023-08-30T06:56:15;100473.25;;;17.07;100.00
46464;BME280;32161;48.148;-1.554;2023-08-30T06:58:43;100482.84;;;17.10;100.00
46464;BME280;32161;48.148;-1.554;2023-08-30T07:01:11;100479.28;;;17.15;100.00
46464;BME280;32161;48.148;-1.554;2023-08-30T07:03:38;100478.44;;;17.14;100.00
46464;BME280;32161;48.148;-1.554;2023-08-30T07:06:07;100485.28;;;17.17;100.00
46464;BME280;32161;48.148;-1.554;2023-08-30T07:08:35;100479.81;;;17.17;100.00
46464;BME280;32161;48.148;-1.554;2023-08-30T07:11:02;100480.34;;;17.14;100.00
46464;BME280;32161;48.148;-1.554;2023-08-30T07:13:30;100480.09;;;17.10;100.00
46464;BME280;32161;48.148;-1.554;2023-08-30T07:15:57;100477.91;;;17.12;100.00
46464;BME280;32161;48.148;-1.554;2023-08-30T07:18:25;100485.03;;;17.13;100.00
46464;BME280;32161;48.148;-1.554;2023-08-30T07:20:53;100488.31;;;17.20;100.00
46464;BME280;32161;48.148;-1.554;2023-08-30T07:23:21;100480.06;;;17.20;100.00
46464;BME280;32161;48.148;-1.554;2023-08-30T07:25:51;100494.88;;;17.24;100.00
46464;BME280;32161;48.148;-1.554;2023-08-30T07:28:18;100495.44;;;17.26;100.00
46464;BME280;32161;48.148;-1.554;2023-08-30T07:30:46;100497.88;;;17.28;100.00
46464;BME280;32161;48.148;-1.554;2023-08-30T07:33:14;100495.69;;;17.30;100.00
46464;BME280;32161;48.148;-1.554;2023-08-30T07:35:41;100496.22;;;17.32;100.00
46464;BME280;32161;48.148;-1.554;2023-08-30T07:38:09;100501.47;;;17.33;100.00
46464;BME280;32161;48.148;-1.554;2023-08-30T07:40:38;100499.22;;;17.36;99.28
46464;BME280;32161;48.148;-1.554;2023-08-30T07:43:05;100496.78;;;17.34;100.00
46464;BME280;32161;48.148;-1.554;2023-08-30T07:45:33;100494.78;;;17.45;99.94
46464;BME280;32161;48.148;-1.554;2023-08-30T07:48:00;100486.53;;;17.50;99.70
46464;BME280;32161;48.148;-1.554;2023-08-30T07:50:28;100498.09;;;17.47;99.07
46464;BME280;32161;48.148;-1.554;2023-08-30T07:52:56;100495.31;;;17.57;99.06
46464;BME280;32161;48.148;-1.554;2023-08-30T07:55:23;100509.03;;;17.57;99.60
46464;BME280;32161;48.148;-1.554;2023-08-30T07:57:52;100510.69;;;17.58;98.37
46464;BME280;32161;48.148;-1.554;2023-08-30T08:00:20;100507.09;;;17.57;97.87
46464;BME280;32161;48.148;-1.554;2023-08-30T08:02:48;100504.63;;;17.61;95.33
46464;BME280;32161;48.148;-1.554;2023-08-30T08:05:15;100505.66;;;17.70;96.99
46464;BME280;32161;48.148;-1.554;2023-08-30T08:07:43;100501.78;;;17.81;95.64
46464;BME280;32161;48.148;-1.554;2023-08-30T08:10:11;100494.31;;;17.87;93.64
46464;BME280;32161;48.148;-1.554;2023-08-30T08:12:38;100514.34;;;17.93;94.97
46464;BME280;32161;48.148;-1.554;2023-08-30T08:15:08;100498.94;;;17.97;93.56
46464;BME280;32161;48.148;-1.554;2023-08-30T08:17:36;100507.72;;;17.99;95.36
46464;BME280;32161;48.148;-1.554;2023-08-30T08:20:06;100506.31;;;18.01;90.93
46464;BME280;32161;48.148;-1.554;2023-08-30T08:22:33;100501.06;;;18.05;90.97
46464;BME280;32161;48.148;-1.554;2023-08-30T08:25:00;100503.19;;;18.18;92.64
46464;BME280;32161;48.148;-1.554;2023-08-30T08:27:28;100500.38;;;18.23;90.97
46464;BME280;32161;48.148;-1.554;2023-08-30T08:29:56;100508.06;;;18.26;87.45
46464;BME280;32161;48.148;-1.554;2023-08-30T08:32:25;100510.78;;;18.32;84.80
46464;BME280;32161;48.148;-1.554;2023-08-30T08:34:52;100511.91;;;18.25;85.95
46464;BME280;32161;48.148;-1.554;2023-08-30T08:37:20;100501.88;;;18.40;89.27
46464;BME280;32161;48.148;-1.554;2023-08-30T08:39:48;100519.44;;;18.49;84.69
46464;BME280;32161;48.148;-1.554;2023-08-30T08:42:19;100518.50;;;18.59;86.33
46464;BME280;32161;48.148;-1.554;2023-08-30T08:44:47;100528.53;;;18.78;82.21
46464;BME280;32161;48.148;-1.554;2023-08-30T08:47:17;100529.38;;;18.79;84.74
46464;BME280;32161;48.148;-1.554;2023-08-30T08:49:48;100531.72;;;18.91;83.13
46464;BME280;32161;48.148;-1.554;2023-08-30T08:52:16;100525.94;;;18.92;81.94
46464;BME280;32161;48.148;-1.554;2023-08-30T08:54:45;100536.47;;;18.85;80.92
46464;BME280;32161;48.148;-1.554;2023-08-30T08:57:13;100531.69;;;18.96;80.30
46464;BME280;32161;48.148;-1.554;2023-08-30T08:59:40;100536.78;;;19.08;80.73
46464;BME280;32161;48.148;-1.554;2023-08-30T09:02:13;100533.25;;;19.02;78.86
46464;BME280;32161;48.148;-1.554;2023-08-30T09:04:41;100526.19;;;19.20;79.92
46464;BME280;32161;48.148;-1.554;2023-08-30T09:07:11;100523.00;;;19.32;78.71
46464;BME280;32161;48.148;-1.554;2023-08-30T09:09:39;100525.56;;;19.47;79.40
46464;BME280;32161;48.148;-1.554;2023-08-30T09:12:07;100534.63;;;19.52;75.63
46464;BME280;32161;48.148;-1.554;2023-08-30T09:14:34;100533.59;;;19.67;74.73
46464;BME280;32161;48.148;-1.554;2023-08-30T09:17:03;100538.75;;;19.74;74.00
46464;BME280;32161;48.148;-1.554;2023-08-30T09:19:31;100536.16;;;19.83;71.74
46464;BME280;32161;48.148;-1.554;2023-08-30T09:21:59;100541.22;;;19.94;72.06
46464;BME280;32161;48.148;-1.554;2023-08-30T09:24:38;100540.41;;;19.94;71.36
46464;BME280;32161;48.148;-1.554;2023-08-30T09:27:06;100537.84;;;20.03;71.90
46464;BME280;32161;48.148;-1.554;2023-08-30T09:29:34;100547.78;;;20.17;72.35
46464;BME280;32161;48.148;-1.554;2023-08-30T09:32:02;100552.72;;;20.20;69.94
46464;BME280;32161;48.148;-1.554;2023-08-30T09:34:30;100552.34;;;20.27;68.89
46464;BME280;32161;48.148;-1.554;2023-08-30T09:36:57;100547.06;;;20.31;69.01
46464;BME280;32161;48.148;-1.554;2023-08-30T09:39:28;100549.94;;;20.39;70.43
46464;BME280;32161;48.148;-1.554;2023-08-30T09:41:56;100553.53;;;20.40;67.42
46464;BME280;32161;48.148;-1.554;2023-08-30T09:44:24;100553.84;;;20.38;67.12
46464;BME280;32161;48.148;-1.554;2023-08-30T09:46:56;100541.97;;;20.38;67.46
46464;BME280;32161;48.148;-1.554;2023-08-30T09:49:26;100543.00;;;20.42;66.84
46464;BME280;32161;48.148;-1.554;2023-08-30T09:51:54;100533.06;;;20.41;68.46
46464;BME280;32161;48.148;-1.554;2023-08-30T09:54:23;100530.13;;;20.37;68.43
46464;BME280;32161;48.148;-1.554;2023-08-30T09:56:52;100537.38;;;20.47;67.67
46464;BME280;32161;48.148;-1.554;2023-08-30T09:59:23;100541.75;;;20.53;67.06
46464;BME280;32161;48.148;-1.554;2023-08-30T10:01:51;100536.66;;;20.60;66.29
46464;BME280;32161;48.148;-1.554;2023-08-30T10:04:20;100533.28;;;20.63;66.21
46464;BME280;32161;48.148;-1.554;2023-08-30T10:06:49;100536.78;;;20.69;65.78
46464;BME280;32161;48.148;-1.554;2023-08-30T10:09:18;100533.31;;;20.77;62.40
46464;BME280;32161;48.148;-1.554;2023-08-30T10:11:46;100537.72;;;20.78;62.04
46464;BME280;32161;48.148;-1.554;2023-08-30T10:14:15;100540.00;;;20.90;66.63
46464;BME280;32161;48.148;-1.554;2023-08-30T10:16:45;100544.59;;;20.94;65.32
46464;BME280;32161;48.148;-1.554;2023-08-30T10:19:16;100545.34;;;21.00;66.37
46464;BME280;32161;48.148;-1.554;2023-08-30T10:21:44;100549.72;;;21.01;66.32
46464;BME280;32161;48.148;-1.554;2023-08-30T10:24:14;100550.25;;;21.03;65.69
46464;BME280;32161;48.148;-1.554;2023-08-30T10:26:45;100548.38;;;20.98;64.67
46464;BME280;32161;48.148;-1.554;2023-08-30T10:29:15;100548.38;;;20.98;65.02
46464;BME280;32161;48.148;-1.554;2023-08-30T10:31:43;100545.66;;;21.12;64.35
46464;BME280;32161;48.148;-1.554;2023-08-30T10:34:15;100553.94;;;21.12;67.01
46464;BME280;32161;48.148;-1.554;2023-08-30T10:36:44;100549.03;;;21.23;65.09
46464;BME280;32161;48.148;-1.554;2023-08-30T10:39:12;100545.97;;;21.25;64.16
46464;BME280;32161;48.148;-1.554;2023-08-30T10:41:55;100552.94;;;21.22;64.99
46464;BME280;32161;48.148;-1.554;2023-08-30T10:44:24;100554.16;;;21.16;64.54
46464;BME280;32161;48.148;-1.554;2023-08-30T10:46:55;100559.16;;;21.14;65.31
46464;BME280;32161;48.148;-1.554;2023-08-30T10:49:22;100557.53;;;21.13;65.69
46464;BME280;32161;48.148;-1.554;2023-08-30T10:51:56;100560.88;;;21.10;65.97
46464;BME280;32161;48.148;-1.554;2023-08-30T10:54:25;100557.84;;;21.11;63.73
46464;BME280;32161;48.148;-1.554;2023-08-30T10:56:57;100565.38;;;21.06;65.02
46464;BME280;32161;48.148;-1.554;2023-08-30T10:59:28;100559.97;;;21.01;62.49
46464;BME280;32161;48.148;-1.554;2023-08-30T11:01:56;100561.88;;;20.86;62.09
46464;BME280;32161;48.148;-1.554;2023-08-30T11:04:30;100556.97;;;20.83;62.40
46464;BME280;32161;48.148;-1.554;2023-08-30T11:06:57;100545.50;;;20.90;62.45
46464;BME280;32161;48.148;-1.554;2023-08-30T11:09:25;100538.78;;;20.96;65.10
46464;BME280;32161;48.148;-1.554;2023-08-30T11:11:53;100545.16;;;21.10;64.66
46464;BME280;32161;48.148;-1.554;2023-08-30T11:14:20;100545.25;;;21.19;64.65
46464;BME280;32161;48.148;-1.554;2023-08-30T11:16:49;100542.50;;;21.33;64.59
46464;BME280;32161;48.148;-1.554;2023-08-30T11:19:17;100523.69;;;21.35;62.74
46464;BME280;32161;48.148;-1.554;2023-08-30T11:21:45;100522.34;;;21.46;62.03
46464;BME280;32161;48.148;-1.554;2023-08-30T11:24:12;100521.94;;;21.53;63.17
46464;BME280;32161;48.148;-1.554;2023-08-30T11:26:40;100532.16;;;21.66;64.56
46464;BME280;32161;48.148;-1.554;2023-08-30T11:29:08;100528.66;;;21.74;64.67
46464;BME280;32161;48.148;-1.554;2023-08-30T11:31:36;100527.72;;;21.79;63.04
46464;BME280;32161;48.148;-1.554;2023-08-30T11:34:05;100528.09;;;21.86;61.61
46464;BME280;32161;48.148;-1.554;2023-08-30T11:36:35;100530.06;;;21.85;63.69
46464;BME280;32161;48.148;-1.554;2023-08-30T11:39:04;100535.28;;;21.87;63.70
46464;BME280;32161;48.148;-1.554;2023-08-30T11:41:32;100528.63;;;21.88;62.73
46464;BME280;32161;48.148;-1.554;2023-08-30T11:43:59;100531.69;;;21.86;64.26
46464;BME280;32161;48.148;-1.554;2023-08-30T11:46:28;100536.72;;;21.84;63.04
46464;BME280;32161;48.148;-1.554;2023-08-30T11:48:57;100534.91;;;21.80;61.96
46464;BME280;32161;48.148;-1.554;2023-08-30T11:51:26;100535.94;;;21.70;61.31
46464;BME280;32161;48.148;-1.554;2023-08-30T11:53:54;100525.28;;;21.63;61.56
46464;BME280;32161;48.148;-1.554;2023-08-30T11:56:22;100528.44;;;21.70;61.38
46464;BME280;32161;48.148;-1.554;2023-08-30T11:58:50;100538.78;;;21.79;63.47
46464;BME280;32161;48.148;-1.554;2023-08-30T12:01:19;100545.97;;;21.80;62.95
46464;BME280;32161;48.148;-1.554;2023-08-30T12:03:46;100543.13;;;21.57;63.25
46464;BME280;32161;48.148;-1.554;2023-08-30T12:06:17;100531.81;;;21.67;63.07
46464;BME280;32161;48.148;-1.554;2023-08-30T12:08:45;100536.66;;;21.76;61.26
46464;BME280;32161;48.148;-1.554;2023-08-30T12:11:19;100520.31;;;21.88;60.67
46464;BME280;32161;48.148;-1.554;2023-08-30T12:13:47;100525.53;;;21.89;62.39
46464;BME280;32161;48.148;-1.554;2023-08-30T12:16:17;100528.28;;;22.03;60.57
46464;BME280;32161;48.148;-1.554;2023-08-30T12:18:46;100529.38;;;22.02;60.16
46464;BME280;32161;48.148;-1.554;2023-08-30T12:21:14;100528.50;;;21.93;58.57
46464;BME280;32161;48.148;-1.554;2023-08-30T12:23:42;100524.38;;;22.04;61.42
46464;BME280;32161;48.148;-1.554;2023-08-30T12:26:12;100517.38;;;22.21;59.26
46464;BME280;32161;48.148;-1.554;2023-08-30T12:28:41;100522.09;;;22.20;60.55
46464;BME280;32161;48.148;-1.554;2023-08-30T12:31:10;100515.94;;;22.23;58.61
46464;BME280;32161;48.148;-1.554;2023-08-30T12:33:38;100527.38;;;22.30;59.56
46464;BME280;32161;48.148;-1.554;2023-08-30T12:36:06;100520.72;;;22.31;58.71
46464;BME280;32161;48.148;-1.554;2023-08-30T12:38:34;100515.34;;;22.35;58.64
46464;BME280;32161;48.148;-1.554;2023-08-30T12:41:01;100517.94;;;22.31;57.76
46464;BME280;32161;48.148;-1.554;2023-08-30T12:43:31;100525.03;;;22.24;58.76